Time;durP1;ratioP1;P1;durP2;ratioP2;P2;SDS_P1;SDS_P2;PMS_P1;PMS_P2;Temp;Humidity;BMP_temperature;BMP_pressure;BME280_temperature;BME280_humidity;BME280_pressure;Samples;Min_cycle;Max_cycle;Signal;HPM_P1;HPM_P2
2022/09/08 00:00:37;;;;;;;;;;;;;;;19.24;73.98;101077.41;1980309;30;19925;-70
2022/09/08 00:01:40;;;;;;;;;;;;;;;19.24;73.89;101076.63;1980407;30;20287;-69
2022/09/08 00:02:42;;;;;;;;;;;;;;;19.29;73.98;101079.00;1979333;30;19933;-69
2022/09/08 00:03:45;;;;;;;;;;;;;;;19.26;72.30;101080.56;1980403;30;19929;-69
2022/09/08 00:04:47;;;;;;;;;;;;;;;19.30;73.36;101073.13;1979290;29;20383;-68
2022/09/08 00:05:53;;;;;;;;;;;;;;;19.31;72.87;101069.22;1979221;30;20008;-68
2022/09/08 00:06:56;;;;;;;;;;;;;;;19.36;73.29;101070.00;1980471;30;20298;-68
2022/09/08 00:07:59;;;;;;;;;;;;;;;19.38;72.84;101068.44;1979088;30;19929;-69
2022/09/08 00:09:02;;;;;;;;;;;;;;;19.34;72.95;101062.94;1979117;30;19941;-71
2022/09/08 00:10:03;;;;;;;;;;;;;;;19.36;73.06;101062.56;1980393;30;19932;-70
2022/09/08 00:11:07;;;;;;;;;;;;;;;19.34;72.98;101062.94;1978982;30;19932;-70
2022/09/08 00:12:11;;;;;;;;;;;;;;;19.36;73.18;101067.28;1979188;29;19945;-69
2022/09/08 00:13:13;;;;;;;;;;;;;;;19.37;72.83;101060.59;1973080;30;19937;-70
2022/09/08 00:14:16;;;;;;;;;;;;;;;19.39;72.81;101052.78;1976070;29;19926;-69
2022/09/08 00:15:17;;;;;;;;;;;;;;;19.40;72.75;101059.81;1980231;30;19929;-70
2022/09/08 00:16:20;;;;;;;;;;;;;;;19.43;72.66;101053.53;1971361;30;19933;-70
2022/09/08 00:17:22;;;;;;;;;;;;;;;19.43;72.48;101051.59;1972317;30;19936;-70
2022/09/08 00:18:25;;;;;;;;;;;;;;;19.46;72.34;101050.00;1972377;30;19925;-69
2022/09/08 00:19:26;;;;;;;;;;;;;;;19.48;72.04;101053.16;1964932;30;19929;-70
2022/09/08 00:20:29;;;;;;;;;;;;;;;19.50;72.16;101048.06;1966345;30;20343;-70
2022/09/08 00:21:32;;;;;;;;;;;;;;;19.50;72.03;101046.13;1972985;30;19940;-69
2022/09/08 00:22:35;;;;;;;;;;;;;;;19.49;72.06;101044.53;1977743;29;19925;-69
2022/09/08 00:23:37;;;;;;;;;;;;;;;19.49;71.67;101043.78;1978983;30;19929;-70
2022/09/08 00:24:39;;;;;;;;;;;;;;;19.44;71.77;101044.94;1979135;30;19932;-70
2022/09/08 00:25:41;;;;;;;;;;;;;;;19.42;71.90;101047.31;1975560;29;19929;-70
2022/09/08 00:26:44;;;;;;;;;;;;;;;19.41;72.18;101042.22;1986107;29;19936;-70
2022/09/08 00:27:45;;;;;;;;;;;;;;;19.38;71.62;101043.78;1986005;29;20671;-69
2022/09/08 00:28:49;;;;;;;;;;;;;;;19.37;71.54;101039.50;1987785;29;19928;-69
2022/09/08 00:29:51;;;;;;;;;;;;;;;19.33;71.88;101042.22;1982836;29;20023;-70
2022/09/08 00:30:54;;;;;;;;;;;;;;;19.36;72.00;101034.41;1987848;29;19929;-70
2022/09/08 00:31:56;;;;;;;;;;;;;;;19.36;71.81;101039.88;1972897;30;19983;-70
2022/09/08 00:32:59;;;;;;;;;;;;;;;19.37;71.82;101038.69;1972166;30;20368;-69
2022/09/08 00:34:08;;;;;;;;;;;;;;;19.38;71.71;101032.06;1968117;30;19941;-69
2022/09/08 00:35:14;;;;;;;;;;;;;;;19.41;71.71;101031.28;1980848;29;19981;-69
2022/09/08 00:36:19;;;;;;;;;;;;;;;19.38;71.67;101037.53;1964841;30;19926;-69
2022/09/08 00:37:26;;;;;;;;;;;;;;;19.38;71.41;101037.53;1967907;30;19933;-69
2022/09/08 00:38:27;;;;;;;;;;;;;;;19.37;71.21;101039.50;1972235;30;19934;-69
2022/09/08 00:39:30;;;;;;;;;;;;;;;19.36;71.41;101032.44;1972133;30;19990;-69
2022/09/08 00:40:39;;;;;;;;;;;;;;;19.36;71.25;101039.88;1981478;29;20508;-69
2022/09/08 00:41:42;;;;;;;;;;;;;;;19.33;71.40;101035.19;1987694;29;20558;-70
2022/09/08 00:42:44;;;;;;;;;;;;;;;19.31;71.60;101041.84;1982980;29;20378;-70
2022/09/08 00:43:47;;;;;;;;;;;;;;;19.30;71.68;101043.03;1987634;29;20016;-70
2022/09/08 00:44:49;;;;;;;;;;;;;;;19.29;71.46;101036.00;1979966;29;19932;-70
2022/09/08 00:45:52;;;;;;;;;;;;;;;19.28;71.35;101039.88;1980037;29;19936;-69
2022/09/08 00:46:55;;;;;;;;;;;;;;;19.29;71.64;101032.47;1980239;29;19929;-69
2022/09/08 00:47:59;;;;;;;;;;;;;;;19.25;71.53;101029.69;1986321;29;19929;-69
2022/09/08 00:49:03;;;;;;;;;;;;;;;19.21;71.64;101028.94;1977039;30;19941;-70
2022/09/08 00:50:07;;;;;;;;;;;;;;;19.23;71.54;101031.28;1972151;30;19926;-69
2022/09/08 00:51:09;;;;;;;;;;;;;;;19.16;71.69;101023.06;1970525;30;19929;-70
2022/09/08 00:52:12;;;;;;;;;;;;;;;19.12;72.04;101019.56;1971658;30;19926;-69
2022/09/08 00:53:16;;;;;;;;;;;;;;;19.11;72.08;101018.78;1972752;30;20405;-69
2022/09/08 00:54:19;;;;;;;;;;;;;;;19.11;72.21;101018.78;1977746;30;19929;-69
2022/09/08 00:55:21;;;;;;;;;;;;;;;19.12;72.20;101020.31;1979986;30;20426;-69
2022/09/08 00:56:24;;;;;;;;;;;;;;;19.14;71.95;101009.78;1979964;30;19948;-69
2022/09/08 00:57:25;;;;;;;;;;;;;;;19.16;71.95;101012.91;1979970;29;20001;-70
2022/09/08 00:58:28;;;;;;;;;;;;;;;19.19;72.02;101012.13;1979764;30;19953;-70
2022/09/08 00:59:32;;;;;;;;;;;;;;;19.20;71.71;101005.47;1979949;29;19926;-70
2022/09/08 01:00:35;;;;;;;;;;;;;;;19.16;71.84;101010.16;1987588;29;19932;-69
2022/09/08 01:01:38;;;;;;;;;;;;;;;19.15;71.50;101008.59;1981914;29;20310;-69
2022/09/08 01:02:42;;;;;;;;;;;;;;;19.12;71.72;101009.38;1971685;30;19973;-69
2022/09/08 01:03:44;;;;;;;;;;;;;;;19.09;72.04;101012.91;1972095;30;20004;-69
2022/09/08 01:04:46;;;;;;;;;;;;;;;19.09;71.99;101010.16;1981490;29;19936;-70
2022/09/08 01:05:52;;;;;;;;;;;;;;;19.10;72.08;101006.28;1986467;29;19936;-69
2022/09/08 01:12:49;;;;;;;;;;;;;;;19.06;72.25;101005.47;1979313;30;19930;-69
2022/09/08 01:13:56;;;;;;;;;;;;;;;19.06;71.98;101010.16;1979531;30;20001;-69
2022/09/08 01:14:58;;;;;;;;;;;;;;;19.02;72.29;100999.25;1972658;30;19972;-69
2022/09/08 01:16:00;;;;;;;;;;;;;;;19.01;72.26;101002.38;1976114;30;20294;-69
2022/09/08 01:17:11;;;;;;;;;;;;;;;19.01;72.27;100997.66;1979731;30;19941;-69
2022/09/08 01:18:13;;;;;;;;;;;;;;;18.98;72.51;100998.47;1972600;30;20421;-69
2022/09/08 01:19:18;;;;;;;;;;;;;;;19.00;72.37;101000.81;1977141;30;20311;-69
2022/09/08 01:20:24;;;;;;;;;;;;;;;18.94;72.48;100994.16;1979209;30;19925;-69
2022/09/08 01:21:29;;;;;;;;;;;;;;;18.93;72.49;100990.63;1972453;30;19930;-70
2022/09/08 01:22:47;;;;;;;;;;;;;;;18.90;72.77;100987.94;1976676;30;19929;-70
2022/09/08 01:24:06;;;;;;;;;;;;;;;18.87;72.05;100991.44;1979051;30;19934;-69
2022/09/08 01:25:22;;;;;;;;;;;;;;;18.85;72.63;100982.84;1979339;30;20375;-69
2022/09/08 01:26:34;;;;;;;;;;;;;;;18.85;72.70;100983.63;1971750;30;20002;-68
2022/09/08 01:27:39;;;;;;;;;;;;;;;18.87;72.65;100985.94;1976100;30;19936;-68
2022/09/08 01:28:43;;;;;;;;;;;;;;;18.88;72.74;100977.38;1967051;30;19929;-69
2022/09/08 01:29:46;;;;;;;;;;;;;;;18.89;72.63;100973.47;1972153;30;20022;-69
2022/09/08 01:30:49;;;;;;;;;;;;;;;18.92;72.51;100974.63;1971594;30;19926;-69
2022/09/08 01:31:53;;;;;;;;;;;;;;;18.92;72.35;100971.88;1970706;30;19929;-69
2022/09/08 01:32:55;;;;;;;;;;;;;;;18.91;72.33;100965.66;1972451;30;20386;-69
2022/09/08 01:33:59;;;;;;;;;;;;;;;18.92;72.39;100966.41;1979316;29;20395;-69
2022/09/08 01:35:01;;;;;;;;;;;;;;;18.91;72.33;100957.44;1987182;29;19998;-69
2022/09/08 01:36:08;;;;;;;;;;;;;;;18.92;72.46;100958.19;1972481;30;19929;-69
2022/09/08 01:37:10;;;;;;;;;;;;;;;18.93;72.52;100957.03;1972412;30;19926;-68
2022/09/08 01:38:13;;;;;;;;;;;;;;;18.88;72.30;100952.75;1972505;30;20596;-69
2022/09/08 01:39:15;;;;;;;;;;;;;;;18.87;72.17;100953.13;1971398;30;20270;-68
2022/09/08 01:40:18;;;;;;;;;;;;;;;18.82;72.43;100967.97;1971776;30;19929;-68
2022/09/08 01:41:21;;;;;;;;;;;;;;;18.79;72.07;100957.06;1987263;29;19929;-69
2022/09/08 01:42:25;;;;;;;;;;;;;;;18.77;72.38;100960.19;1980415;29;20326;-70
2022/09/08 01:43:29;;;;;;;;;;;;;;;18.75;72.63;100951.59;1979354;30;19929;-70
2022/09/08 01:44:33;;;;;;;;;;;;;;;18.74;72.44;100954.72;1979756;30;19977;-70
2022/09/08 01:45:36;;;;;;;;;;;;;;;18.69;72.53;100942.22;1979595;29;19925;-70
2022/09/08 01:46:40;;;;;;;;;;;;;;;18.68;72.14;100951.59;1979027;29;19925;-69
2022/09/08 01:47:42;;;;;;;;;;;;;;;18.67;72.78;100939.09;1979777;30;19925;-70
2022/09/08 01:48:46;;;;;;;;;;;;;;;18.63;73.07;100938.31;1979032;30;19930;-70
2022/09/08 01:49:48;;;;;;;;;;;;;;;18.59;73.07;100940.28;1979035;30;19936;-70
2022/09/08 01:50:51;;;;;;;;;;;;;;;18.56;73.16;100938.31;1979834;30;20346;-69
2022/09/08 01:51:53;;;;;;;;;;;;;;;18.56;73.29;100932.84;1979600;29;19929;-69
2022/09/08 01:52:56;;;;;;;;;;;;;;;18.53;73.32;100932.84;1978881;30;20375;-70
2022/09/08 01:53:59;;;;;;;;;;;;;;;18.50;73.64;100937.16;1972282;30;19952;-69
2022/09/08 01:55:04;;;;;;;;;;;;;;;18.49;73.50;100927.38;1975952;30;19929;-69
2022/09/08 01:56:07;;;;;;;;;;;;;;;18.48;73.36;100944.19;1980931;30;20374;-69
2022/09/08 01:57:10;;;;;;;;;;;;;;;18.45;73.04;100942.22;1980968;30;19929;-70
2022/09/08 01:58:12;;;;;;;;;;;;;;;18.44;73.68;100941.44;1980079;30;19936;-70
2022/09/08 01:59:19;;;;;;;;;;;;;;;18.42;73.79;100943.00;1981479;30;20413;-70
2022/09/08 02:00:22;;;;;;;;;;;;;;;18.40;74.03;100943.41;1981485;30;19946;-70
2022/09/08 02:01:26;;;;;;;;;;;;;;;18.38;74.36;100937.53;1980254;30;20005;-70
2022/09/08 02:02:28;;;;;;;;;;;;;;;18.40;74.42;100942.63;1973339;30;20414;-70
2022/09/08 02:03:31;;;;;;;;;;;;;;;18.39;74.41;100938.31;1972567;30;19983;-70
2022/09/08 02:04:34;;;;;;;;;;;;;;;18.42;74.31;100946.53;1975915;30;19961;-70
2022/09/08 02:05:38;;;;;;;;;;;;;;;18.39;74.55;100943.78;1981396;30;19926;-70
2022/09/08 02:06:41;;;;;;;;;;;;;;;18.42;74.50;100949.28;1980363;30;19965;-67
2022/09/08 02:07:48;;;;;;;;;;;;;;;18.38;74.11;100948.47;1982621;29;19952;-67
2022/09/08 02:08:52;;;;;;;;;;;;;;;18.37;74.49;100944.16;1981483;29;20054;-67
2022/09/08 02:09:56;;;;;;;;;;;;;;;18.37;74.88;100944.16;1980935;29;19965;-67
2022/09/08 02:10:59;;;;;;;;;;;;;;;18.37;74.45;100940.63;1980093;29;19926;-67
2022/09/08 02:12:03;;;;;;;;;;;;;;;18.36;74.52;100939.84;1981149;30;20015;-67
2022/09/08 02:13:05;;;;;;;;;;;;;;;18.34;74.76;100934.00;1980259;30;19973;-67
2022/09/08 02:14:13;;;;;;;;;;;;;;;18.33;74.34;100940.63;1972168;30;19981;-65
2022/09/08 02:15:16;;;;;;;;;;;;;;;18.30;74.43;100935.94;1973160;30;19933;-66
2022/09/08 02:16:19;;;;;;;;;;;;;;;18.28;74.52;100938.31;1979274;29;19929;-67
2022/09/08 02:17:20;;;;;;;;;;;;;;;18.24;75.00;100934.78;1980101;30;19933;-66
2022/09/08 02:18:23;;;;;;;;;;;;;;;18.22;74.96;100939.84;1981284;30;19933;-66
2022/09/08 02:19:26;;;;;;;;;;;;;;;18.22;74.80;100939.84;1971905;30;19949;-65
2022/09/08 02:20:28;;;;;;;;;;;;;;;18.22;75.13;100942.56;1971864;30;20061;-66
2022/09/08 02:21:30;;;;;;;;;;;;;;;18.22;75.83;100939.06;1965693;30;19933;-65
2022/09/08 02:22:32;;;;;;;;;;;;;;;18.21;74.80;100937.50;1970372;30;19930;-66
2022/09/08 02:23:35;;;;;;;;;;;;;;;18.21;75.41;100943.75;1973712;30;19930;-66
2022/09/08 02:24:37;;;;;;;;;;;;;;;18.23;75.64;100935.16;1980762;29;19933;-66
2022/09/08 02:25:41;;;;;;;;;;;;;;;18.20;75.74;100934.00;1979498;30;19979;-66
2022/09/08 02:26:43;;;;;;;;;;;;;;;18.24;75.49;100926.56;1980848;29;20332;-67
2022/09/08 02:27:46;;;;;;;;;;;;;;;18.24;75.43;100929.31;1979614;30;19936;-67
2022/09/08 02:28:48;;;;;;;;;;;;;;;18.24;75.39;100932.03;1979547;30;19983;-67
2022/09/08 02:29:51;;;;;;;;;;;;;;;18.22;75.17;100930.88;1981196;30;19925;-67
2022/09/08 02:30:57;;;;;;;;;;;;;;;18.22;75.32;100928.16;1979335;29;19929;-66
2022/09/08 02:32:00;;;;;;;;;;;;;;;18.21;75.34;100919.16;1979326;30;19949;-65
2022/09/08 02:33:02;;;;;;;;;;;;;;;18.25;75.44;100916.44;1981012;29;20485;-67
2022/09/08 02:34:05;;;;;;;;;;;;;;;18.27;75.47;100920.31;1983102;29;20283;-66
2022/09/08 02:35:07;;;;;;;;;;;;;;;18.31;75.62;100915.66;1987201;29;19978;-66
2022/09/08 02:36:10;;;;;;;;;;;;;;;18.34;74.88;100923.06;1973655;30;19926;-66
2022/09/08 02:37:12;;;;;;;;;;;;;;;18.38;75.04;100923.88;1977522;30;20411;-66
2022/09/08 02:38:15;;;;;;;;;;;;;;;18.38;75.08;100925.81;1980860;30;19925;-67
2022/09/08 02:39:18;;;;;;;;;;;;;;;18.33;75.71;100916.03;1973540;30;20002;-66
2022/09/08 02:40:20;;;;;;;;;;;;;;;18.28;75.95;100924.63;1976697;30;19992;-67
2022/09/08 02:41:23;;;;;;;;;;;;;;;18.27;75.36;100916.81;1973582;30;20366;-67
2022/09/08 02:42:26;;;;;;;;;;;;;;;18.23;75.70;100925.03;1980099;30;19937;-67
2022/09/08 02:43:29;;;;;;;;;;;;;;;18.20;75.91;100917.59;1978436;30;19933;-67
2022/09/08 02:44:32;;;;;;;;;;;;;;;18.21;75.89;100921.88;1973715;30;19934;-67
2022/09/08 02:45:37;;;;;;;;;;;;;;;18.18;75.94;100928.13;1979671;29;19926;-67
2022/09/08 02:46:42;;;;;;;;;;;;;;;18.21;76.10;100926.56;1972615;30;20414;-67
2022/09/08 02:47:43;;;;;;;;;;;;;;;18.20;76.31;100914.88;1972985;30;20415;-67
2022/09/08 02:48:46;;;;;;;;;;;;;;;18.24;76.10;100925.78;1979083;29;19929;-66
2022/09/08 02:49:48;;;;;;;;;;;;;;;18.25;75.46;100927.38;1980756;30;19925;-67
2022/09/08 02:50:51;;;;;;;;;;;;;;;18.22;75.61;100920.72;1980901;30;19933;-67
2022/09/08 02:51:52;;;;;;;;;;;;;;;18.23;76.05;100918.75;1980711;30;20283;-67
2022/09/08 02:52:56;;;;;;;;;;;;;;;18.21;75.41;100916.41;1980607;29;19929;-66
2022/09/08 02:53:59;;;;;;;;;;;;;;;18.16;76.39;100908.59;1972988;30;19926;-66
2022/09/08 02:55:02;;;;;;;;;;;;;;;18.15;76.49;100917.19;1972430;30;20123;-66
2022/09/08 02:56:06;;;;;;;;;;;;;;;18.11;76.40;100917.19;1973442;30;19925;-66
2022/09/08 02:57:10;;;;;;;;;;;;;;;18.11;76.40;100922.66;1965685;30;19930;-65
2022/09/08 02:58:12;;;;;;;;;;;;;;;18.13;76.19;100920.31;1973347;30;19929;-66
2022/09/08 02:59:15;;;;;;;;;;;;;;;18.13;76.64;100911.31;1980711;30;19976;-66
2022/09/08 03:00:22;;;;;;;;;;;;;;;18.11;76.50;100919.16;1973409;30;19930;-66
2022/09/08 03:01:25;;;;;;;;;;;;;;;18.11;76.27;100914.44;1977094;30;19929;-66
2022/09/08 03:02:32;;;;;;;;;;;;;;;18.12;76.45;100910.56;1972527;30;19930;-66
2022/09/08 03:03:36;;;;;;;;;;;;;;;18.14;76.60;100907.44;1965357;30;19933;-66
2022/09/08 03:04:38;;;;;;;;;;;;;;;18.16;76.15;100914.06;1969426;30;19938;-66
2022/09/08 03:05:41;;;;;;;;;;;;;;;18.18;76.20;100910.94;1980851;29;20306;-66
2022/09/08 03:06:43;;;;;;;;;;;;;;;18.20;76.10;100905.88;1979622;29;19929;-66
2022/09/08 03:07:46;;;;;;;;;;;;;;;18.21;75.78;100913.69;1971880;30;19945;-66
2022/09/08 03:08:49;;;;;;;;;;;;;;;18.23;75.81;100914.09;1972820;30;20298;-67
2022/09/08 03:09:53;;;;;;;;;;;;;;;18.24;76.04;100910.16;1979476;30;19929;-66
2022/09/08 03:10:56;;;;;;;;;;;;;;;18.24;76.02;100914.84;1971373;30;19929;-67
2022/09/08 03:12:00;;;;;;;;;;;;;;;18.24;76.38;100912.91;1972886;30;19925;-67
2022/09/08 03:13:02;;;;;;;;;;;;;;;18.25;76.26;100911.72;1979027;30;19961;-67
2022/09/08 03:14:06;;;;;;;;;;;;;;;18.22;76.18;100907.03;1972687;30;19926;-66
2022/09/08 03:15:09;;;;;;;;;;;;;;;18.26;76.23;100909.78;1972841;30;19933;-67
2022/09/08 03:16:12;;;;;;;;;;;;;;;18.26;76.22;100905.09;1978045;30;20018;-66
2022/09/08 03:17:14;;;;;;;;;;;;;;;18.27;76.34;100903.91;1978969;30;19925;-67
2022/09/08 03:18:19;;;;;;;;;;;;;;;18.30;76.31;100896.91;1980916;29;19956;-67
2022/09/08 03:19:21;;;;;;;;;;;;;;;18.30;75.93;100907.84;1978766;30;20361;-66
2022/09/08 03:20:25;;;;;;;;;;;;;;;18.29;76.25;100901.59;1979105;30;19929;-66
2022/09/08 03:21:29;;;;;;;;;;;;;;;18.30;75.93;100903.13;1973395;30;20025;-66
2022/09/08 03:22:31;;;;;;;;;;;;;;;18.27;76.07;100903.91;1976783;29;19929;-66
2022/09/08 03:23:35;;;;;;;;;;;;;;;18.28;76.43;100900.03;1979134;30;19979;-67
2022/09/08 03:24:37;;;;;;;;;;;;;;;18.30;76.39;100899.66;1973343;30;19930;-67
2022/09/08 03:25:40;;;;;;;;;;;;;;;18.32;76.40;100902.75;1977966;30;19925;-67
2022/09/08 03:26:42;;;;;;;;;;;;;;;18.34;76.54;100901.19;1979710;29;20465;-66
2022/09/08 03:27:45;;;;;;;;;;;;;;;18.37;76.27;100903.16;1979758;30;19926;-66
2022/09/08 03:28:50;;;;;;;;;;;;;;;18.40;76.51;100894.19;1978770;30;20402;-67
2022/09/08 03:29:54;;;;;;;;;;;;;;;18.44;76.17;100907.88;1980545;30;19929;-66
2022/09/08 03:30:56;;;;;;;;;;;;;;;18.46;76.13;100898.09;1979664;30;20010;-66
2022/09/08 03:32:00;;;;;;;;;;;;;;;18.49;75.92;100897.31;1980847;29;19925;-66
2022/09/08 03:33:03;;;;;;;;;;;;;;;18.50;76.02;100896.16;1988162;29;20081;-66
2022/09/08 03:34:07;;;;;;;;;;;;;;;18.53;75.63;100895.38;1976470;30;19981;-66
2022/09/08 03:35:11;;;;;;;;;;;;;;;18.53;75.90;100897.31;1979183;29;19929;-67
2022/09/08 03:36:15;;;;;;;;;;;;;;;18.52;75.96;100895.75;1980591;30;19930;-67
2022/09/08 03:37:18;;;;;;;;;;;;;;;18.50;76.02;100893.41;1975993;30;20026;-66
2022/09/08 03:38:21;;;;;;;;;;;;;;;18.49;76.03;100900.03;1965262;30;19930;-66
2022/09/08 03:39:23;;;;;;;;;;;;;;;18.46;76.32;100889.88;1965618;30;20017;-66
2022/09/08 03:40:25;;;;;;;;;;;;;;;18.43;76.21;100893.41;1977468;29;20386;-65
2022/09/08 03:41:28;;;;;;;;;;;;;;;18.41;76.42;100889.53;1988320;29;20019;-68
2022/09/08 03:42:32;;;;;;;;;;;;;;;18.38;76.62;100891.06;1980626;29;20378;-67
2022/09/08 03:43:35;;;;;;;;;;;;;;;18.36;76.44;100895.34;1980383;30;19932;-66
2022/09/08 03:44:38;;;;;;;;;;;;;;;18.32;77.26;100887.13;1980670;30;20462;-67
2022/09/08 03:45:42;;;;;;;;;;;;;;;18.31;76.95;100893.78;1979894;30;19964;-66
2022/09/08 03:46:46;;;;;;;;;;;;;;;18.29;77.11;100890.66;1980592;29;20289;-67
2022/09/08 03:47:48;;;;;;;;;;;;;;;18.26;77.25;100891.44;1980476;29;20294;-66
2022/09/08 03:48:51;;;;;;;;;;;;;;;18.26;77.27;100885.97;1979574;30;19937;-67
2022/09/08 03:49:54;;;;;;;;;;;;;;;18.27;77.42;100884.78;1979667;29;19929;-66
2022/09/08 03:51:07;;;;;;;;;;;;;;;18.28;77.45;100891.03;1980536;30;20416;-66
2022/09/08 03:52:10;;;;;;;;;;;;;;;18.31;77.67;100887.53;1963890;30;19930;-66
2022/09/08 03:53:13;;;;;;;;;;;;;;;18.32;77.29;100889.88;1963948;30;20491;-66
2022/09/08 03:55:39;;;;;;;;;;;;;;;18.38;77.02;100887.53;1967046;30;19933;-66
2022/09/08 03:56:41;;;;;;;;;;;;;;;18.38;77.26;100893.78;1976718;30;19936;-66
2022/09/08 03:57:45;;;;;;;;;;;;;;;18.39;77.11;100889.91;1980022;29;19940;-66
2022/09/08 03:58:47;;;;;;;;;;;;;;;18.39;77.25;100892.66;1980260;30;20301;-66
2022/09/08 03:59:51;;;;;;;;;;;;;;;18.37;77.37;100886.75;1979138;30;19933;-66
2022/09/08 04:00:52;;;;;;;;;;;;;;;18.38;77.21;100882.88;1980600;29;20405;-67
2022/09/08 04:01:55;;;;;;;;;;;;;;;18.40;77.50;100883.25;1965000;30;20433;-66
2022/09/08 04:02:58;;;;;;;;;;;;;;;18.40;77.58;100877.00;1965136;30;19941;-66
2022/09/08 04:04:01;;;;;;;;;;;;;;;18.41;77.59;100887.53;1972939;30;20317;-66
2022/09/08 04:05:05;;;;;;;;;;;;;;;18.42;77.46;100883.66;1978436;30;19936;-67
2022/09/08 04:06:07;;;;;;;;;;;;;;;18.43;77.37;100884.41;1978802;30;20326;-67
2022/09/08 04:07:10;;;;;;;;;;;;;;;18.43;77.22;100884.41;1980384;30;19929;-66
2022/09/08 04:08:12;;;;;;;;;;;;;;;18.42;77.27;100882.88;1970573;30;19929;-66
2022/09/08 04:09:14;;;;;;;;;;;;;;;18.40;77.31;100883.25;1972238;30;19929;-66
2022/09/08 04:10:19;;;;;;;;;;;;;;;18.37;76.79;100881.28;1973133;30;19925;-66
2022/09/08 04:11:20;;;;;;;;;;;;;;;18.36;77.82;100885.16;1976795;30;19925;-66
2022/09/08 04:12:23;;;;;;;;;;;;;;;18.35;77.93;100877.34;1978919;30;19930;-66
2022/09/08 04:13:26;;;;;;;;;;;;;;;18.29;77.43;100879.72;1972918;30;19926;-66
2022/09/08 04:14:28;;;;;;;;;;;;;;;18.23;78.05;100881.28;1976017;30;19933;-67
2022/09/08 04:15:30;;;;;;;;;;;;;;;18.22;77.84;100881.69;1979509;30;19926;-66
2022/09/08 04:16:33;;;;;;;;;;;;;;;18.18;78.30;100873.47;1979356;30;19987;-66
2022/09/08 04:17:35;;;;;;;;;;;;;;;18.18;78.26;100878.16;1980635;29;19933;-66
2022/09/08 04:18:38;;;;;;;;;;;;;;;18.15;78.53;100885.19;1987653;29;19933;-66
2022/09/08 04:19:41;;;;;;;;;;;;;;;18.13;77.89;100889.47;1978884;30;19936;-66
2022/09/08 04:20:57;;;;;;;;;;;;;;;18.12;78.32;100885.97;1970579;30;19930;-67
2022/09/08 04:21:59;;;;;;;;;;;;;;;18.13;78.37;100887.53;1972380;30;19983;-67
2022/09/08 04:23:02;;;;;;;;;;;;;;;18.14;78.22;100877.38;1971512;30;20793;-66
2022/09/08 04:24:04;;;;;;;;;;;;;;;18.16;78.47;100884.00;1970389;30;19934;-67
2022/09/08 04:25:08;;;;;;;;;;;;;;;18.18;78.43;100880.88;1979948;30;19929;-67
2022/09/08 04:26:11;;;;;;;;;;;;;;;18.21;78.44;100878.16;1978615;29;19929;-67
2022/09/08 04:27:14;;;;;;;;;;;;;;;18.23;78.41;100875.81;1978085;30;19929;-67
2022/09/08 04:28:16;;;;;;;;;;;;;;;18.24;78.56;100880.09;1980442;30;19925;-67
2022/09/08 04:29:19;;;;;;;;;;;;;;;18.26;78.35;100880.50;1978000;30;19930;-67
2022/09/08 04:30:21;;;;;;;;;;;;;;;18.26;78.15;100880.50;1978299;30;20416;-68
2022/09/08 04:31:27;;;;;;;;;;;;;;;18.27;78.25;100870.34;1980255;30;19925;-67
2022/09/08 04:32:31;;;;;;;;;;;;;;;18.28;78.21;100869.97;1982936;29;19925;-67
2022/09/08 04:33:35;;;;;;;;;;;;;;;18.28;77.80;100875.44;1967277;30;19927;-67
2022/09/08 04:34:39;;;;;;;;;;;;;;;18.30;77.91;100875.03;1973214;29;20658;-67
2022/09/08 04:35:40;;;;;;;;;;;;;;;18.27;78.16;100873.84;1982589;29;19948;-66
2022/09/08 04:36:45;;;;;;;;;;;;;;;18.26;77.97;100869.56;1971753;30;19929;-68
2022/09/08 04:37:47;;;;;;;;;;;;;;;18.25;78.32;100878.94;1965225;30;19929;-68
2022/09/08 04:38:50;;;;;;;;;;;;;;;18.24;78.56;100871.91;1972645;29;20020;-67
2022/09/08 04:39:52;;;;;;;;;;;;;;;18.26;78.26;100871.50;1972784;30;20271;-67
2022/09/08 04:40:54;;;;;;;;;;;;;;;18.27;78.20;100860.19;1981094;29;19929;-67
2022/09/08 04:41:56;;;;;;;;;;;;;;;18.29;78.26;100863.31;1981514;29;19979;-66
2022/09/08 04:42:59;;;;;;;;;;;;;;;18.32;78.43;100857.06;1972856;30;20383;-68
2022/09/08 04:44:01;;;;;;;;;;;;;;;18.32;78.28;100857.06;1970617;30;19925;-66
2022/09/08 04:45:05;;;;;;;;;;;;;;;18.33;78.36;100863.31;1971893;30;19925;-66
2022/09/08 04:46:08;;;;;;;;;;;;;;;18.30;78.38;100873.06;1980201;30;19930;-66
2022/09/08 04:47:10;;;;;;;;;;;;;;;18.27;78.17;100868.38;1979584;29;19983;-66
2022/09/08 04:48:12;;;;;;;;;;;;;;;18.24;78.09;100866.44;1971488;30;19929;-67
2022/09/08 04:49:15;;;;;;;;;;;;;;;18.23;78.06;100861.38;1964720;30;20411;-66
2022/09/08 04:50:16;;;;;;;;;;;;;;;18.21;78.56;100855.50;1969760;30;19932;-67
2022/09/08 04:51:19;;;;;;;;;;;;;;;18.21;78.60;100853.56;1972897;29;19946;-67
2022/09/08 04:52:25;;;;;;;;;;;;;;;18.22;78.75;100846.91;1972059;30;19955;-66
2022/09/08 04:53:32;;;;;;;;;;;;;;;18.24;78.60;100843.78;1971533;30;19926;-66
2022/09/08 04:54:34;;;;;;;;;;;;;;;18.25;78.40;100848.84;1973130;30;20062;-67
2022/09/08 04:55:37;;;;;;;;;;;;;;;18.27;78.52;100841.06;1980131;30;19933;-67
2022/09/08 04:56:40;;;;;;;;;;;;;;;18.28;78.36;100850.06;1979887;30;19937;-67
2022/09/08 04:57:42;;;;;;;;;;;;;;;18.25;78.44;100851.59;1979631;30;19933;-68
2022/09/08 04:58:46;;;;;;;;;;;;;;;18.25;78.31;100846.13;1980022;30;20016;-67
2022/09/08 04:59:51;;;;;;;;;;;;;;;18.24;78.59;100846.53;1979274;29;20314;-66
2022/09/08 05:00:54;;;;;;;;;;;;;;;18.23;78.68;100843.03;1971911;30;20380;-67
2022/09/08 05:01:55;;;;;;;;;;;;;;;18.25;78.68;100846.13;1971990;30;19926;-66
2022/09/08 05:02:58;;;;;;;;;;;;;;;18.27;78.77;100846.53;1975808;30;20413;-67
2022/09/08 05:04:01;;;;;;;;;;;;;;;18.27;78.54;100835.59;1980106;30;19930;-67
2022/09/08 05:05:04;;;;;;;;;;;;;;;18.29;78.68;100836.00;1978979;30;19952;-67
2022/09/08 05:06:07;;;;;;;;;;;;;;;18.30;78.71;100848.47;1979172;30;19925;-67
2022/09/08 05:07:10;;;;;;;;;;;;;;;18.33;78.77;100842.22;1980110;30;19930;-67
2022/09/08 05:08:13;;;;;;;;;;;;;;;18.36;78.24;100846.91;1971002;30;20033;-67
2022/09/08 05:09:16;;;;;;;;;;;;;;;18.37;78.52;100837.53;1971923;30;20439;-67
2022/09/08 05:10:18;;;;;;;;;;;;;;;18.41;78.38;100843.03;1964699;30;19930;-67
2022/09/08 05:11:21;;;;;;;;;;;;;;;18.40;78.58;100853.19;1961501;30;19930;-66
2022/09/08 05:12:23;;;;;;;;;;;;;;;18.41;78.25;100841.06;1964692;30;19926;-67
2022/09/08 05:13:25;;;;;;;;;;;;;;;18.40;78.06;100844.19;1972602;30;19929;-67
2022/09/08 05:14:28;;;;;;;;;;;;;;;18.42;78.05;100839.13;1964300;30;19930;-67
2022/09/08 05:15:30;;;;;;;;;;;;;;;18.42;78.04;100845.38;1964565;30;20017;-67
2022/09/08 05:16:33;;;;;;;;;;;;;;;18.44;78.04;100840.28;1979676;30;19929;-67
2022/09/08 05:17:35;;;;;;;;;;;;;;;18.46;78.08;100846.16;1978698;29;19930;-67
2022/09/08 05:18:38;;;;;;;;;;;;;;;18.49;78.08;100841.88;1980014;30;19925;-68
2022/09/08 05:19:39;;;;;;;;;;;;;;;18.51;77.88;100844.97;1978568;29;19946;-67
2022/09/08 05:20:42;;;;;;;;;;;;;;;18.52;77.91;100839.09;1978546;30;20013;-67
2022/09/08 05:21:44;;;;;;;;;;;;;;;18.55;77.96;100838.31;1979892;29;19929;-67
2022/09/08 05:22:46;;;;;;;;;;;;;;;18.57;77.90;100838.69;1970402;30;19933;-67
2022/09/08 05:23:50;;;;;;;;;;;;;;;18.58;77.68;100843.00;1971718;30;20014;-67
2022/09/08 05:24:53;;;;;;;;;;;;;;;18.60;77.60;100840.66;1972504;30;20298;-67
2022/09/08 05:25:56;;;;;;;;;;;;;;;18.61;77.54;100841.44;1970258;30;19963;-66
2022/09/08 05:26:59;;;;;;;;;;;;;;;18.62;77.69;100832.03;1971812;30;19926;-67
2022/09/08 05:28:01;;;;;;;;;;;;;;;18.64;77.42;100833.22;1979580;29;19925;-68
2022/09/08 05:29:04;;;;;;;;;;;;;;;18.64;77.38;100830.50;1978075;30;19930;-67
2022/09/08 05:30:06;;;;;;;;;;;;;;;18.65;77.15;100826.56;1978107;30;19968;-67
2022/09/08 05:31:10;;;;;;;;;;;;;;;18.67;77.13;100829.69;1979421;30;19926;-66
2022/09/08 05:32:12;;;;;;;;;;;;;;;18.70;77.04;100822.66;1977903;29;19925;-67